Time;durP1;ratioP1;P1;durP2;ratioP2;P2;SDS_P1;SDS_P2;PMS_P1;PMS_P2;Temp;Humidity;BMP_temperature;BMP_pressure;BME280_temperature;BME280_humidity;BME280_pressure;Samples;Min_cycle;Max_cycle;Signal;HPM_P1;HPM_P2
2023/11/23 00:02:07;;;;;;;26.40;15.00;;;;;;;6.24;58.87;101328.69;108124;1280;21992;-61
2023/11/23 00:04:32;;;;;;;25.00;14.50;;;;;;;6.19;58.62;101336.77;108170;1285;21990;-61
2023/11/23 00:06:58;;;;;;;24.70;14.40;;;;;;;6.16;58.56;101340.38;108179;1280;21985;-61
2023/11/23 00:09:25;;;;;;;24.80;13.90;;;;;;;6.10;58.75;101341.64;108095;1274;22021;-60
2023/11/23 00:11:53;;;;;;;20.30;12.50;;;;;;;6.05;58.53;101342.94;108174;1285;21979;-60
2023/11/23 00:14:18;;;;;;;22.70;12.90;;;;;;;6.06;58.83;101344.88;108256;1278;22001;-61
2023/11/23 00:16:44;;;;;;;22.20;13.20;;;;;;;6.02;58.73;101350.02;108258;1285;21992;-61
2023/11/23 00:19:10;;;;;;;23.90;12.30;;;;;;;5.99;58.27;101355.14;108207;1277;21995;-59
2023/11/23 00:21:36;;;;;;;19.50;11.60;;;;;;;5.92;57.92;101361.77;108262;1277;21995;-60
2023/11/23 00:24:02;;;;;;;19.40;11.20;;;;;;;5.84;57.84;101362.98;108271;1285;21998;-60
2023/11/23 00:26:27;;;;;;;19.60;11.80;;;;;;;5.81;57.78;101360.48;108292;1277;21986;-60
2023/11/23 00:28:54;;;;;;;19.20;11.30;;;;;;;5.80;58.03;101360.81;108191;1280;21985;-60
2023/11/23 00:31:21;;;;;;;20.10;12.70;;;;;;;5.80;58.10;101366.02;108188;1277;22021;-61
2023/11/23 00:33:46;;;;;;;20.30;10.90;;;;;;;5.82;58.07;101366.26;108217;1283;22003;-60
2023/11/23 00:36:15;;;;;;;17.70;10.50;;;;;;;5.85;57.99;101360.20;108216;1284;22024;-60
2023/11/23 00:38:41;;;;;;;15.60;10.30;;;;;;;5.84;58.23;101358.98;108185;1284;22063;-61
2023/11/23 00:41:07;;;;;;;19.00;10.90;;;;;;;5.86;58.02;101364.27;108191;1280;21995;-60
2023/11/23 00:43:34;;;;;;;19.80;12.40;;;;;;;5.85;57.77;101362.13;107477;1284;1002997;-61
2023/11/23 00:46:02;;;;;;;21.40;11.50;;;;;;;5.79;57.57;101359.73;108169;1271;23739;-60
2023/11/23 00:48:27;;;;;;;20.00;12.30;;;;;;;5.80;57.72;101365.50;108223;1282;22023;-60
2023/11/23 00:50:56;;;;;;;18.50;11.30;;;;;;;5.77;57.59;101366.13;108105;1285;21989;-60
2023/11/23 00:53:22;;;;;;;19.40;10.90;;;;;;;5.70;57.63;101363.55;108138;1284;21981;-60
2023/11/23 00:55:48;;;;;;;19.00;10.70;;;;;;;5.67;57.45;101361.56;108086;1285;21984;-61
2023/11/23 00:58:15;;;;;;;20.10;11.10;;;;;;;5.71;57.75;101353.11;108353;1283;22086;-61
2023/11/23 01:00:40;;;;;;;18.40;11.20;;;;;;;5.72;57.54;101351.75;108225;1284;21983;-61
2023/11/23 01:03:06;;;;;;;20.60;11.30;;;;;;;5.70;57.31;101359.02;108288;1284;21981;-60
2023/11/23 01:05:32;;;;;;;21.30;11.30;;;;;;;5.66;57.16;101353.02;108094;1280;21997;-61
2023/11/23 01:07:57;;;;;;;21.20;10.70;;;;;;;5.66;56.97;101348.65;108169;1284;21997;-60
2023/11/23 01:10:24;;;;;;;19.50;11.00;;;;;;;5.68;57.03;101352.70;108203;1285;21991;-61
2023/11/23 01:12:51;;;;;;;21.50;11.50;;;;;;;5.72;57.25;101351.59;108179;1285;21992;-61
2023/11/23 01:15:16;;;;;;;20.50;11.00;;;;;;;5.73;57.28;101353.34;108134;1285;21991;-60
2023/11/23 01:17:42;;;;;;;20.60;11.60;;;;;;;5.63;56.75;101353.29;108085;1274;21961;-60
2023/11/23 01:20:09;;;;;;;20.70;10.40;;;;;;;5.52;56.59;101358.08;108085;1285;21986;-60
2023/11/23 01:22:36;;;;;;;17.50;9.00;;;;;;;5.49;56.99;101358.36;108229;1285;21984;-60
2023/11/23 01:25:04;;;;;;;12.40;7.70;;;;;;;5.46;56.47;101356.38;108068;1274;21977;-61
2023/11/23 01:27:29;;;;;;;15.40;7.90;;;;;;;5.43;56.41;101356.45;108140;1283;22456;-61
2023/11/23 01:29:55;;;;;;;12.70;7.70;;;;;;;5.42;56.42;101354.86;108071;1280;21989;-60
2023/11/23 01:32:20;;;;;;;15.50;7.50;;;;;;;5.44;56.74;101352.83;108217;1284;22259;-60
2023/11/23 01:34:46;;;;;;;15.30;8.30;;;;;;;5.48;56.69;101347.02;108095;1283;22046;-60
2023/11/23 01:37:12;;;;;;;14.80;8.40;;;;;;;5.51;56.55;101346.55;108191;1280;21997;-60
2023/11/23 01:39:38;;;;;;;14.10;7.60;;;;;;;5.52;56.78;101349.36;107533;1278;1002266;-60
2023/11/23 01:42:04;;;;;;;14.00;8.50;;;;;;;5.55;56.82;101348.02;108191;1284;22046;-60
2023/11/23 01:44:30;;;;;;;16.50;9.20;;;;;;;5.59;56.76;101348.13;108180;1285;22003;-61
2023/11/23 01:46:55;;;;;;;19.80;9.60;;;;;;;5.58;56.49;101345.67;108263;1273;21993;-61
2023/11/23 01:49:21;;;;;;;14.30;7.80;;;;;;;5.59;56.69;101350.58;108144;1284;21994;-61
2023/11/23 01:51:47;;;;;;;15.60;9.10;;;;;;;5.57;56.51;101351.21;108117;1280;21997;-60
2023/11/23 01:54:13;;;;;;;16.80;9.70;;;;;;;5.53;56.14;101348.84;108123;1273;21987;-60
2023/11/23 01:56:39;;;;;;;17.20;10.20;;;;;;;5.50;56.38;101346.54;108147;1285;21984;-59
2023/11/23 01:59:04;;;;;;;19.90;9.80;;;;;;;5.47;56.05;101342.12;108109;1281;22746;-62
2023/11/23 02:01:30;;;;;;;15.50;9.30;;;;;;;5.48;56.33;101348.06;107402;1277;1002590;-61
2023/11/23 02:03:56;;;;;;;18.10;9.60;;;;;;;5.49;56.58;101348.09;107290;1285;1002464;-60
2023/11/23 02:06:21;;;;;;;19.80;10.10;;;;;;;5.49;56.39;101340.42;108082;1279;21997;-60
2023/11/23 02:08:48;;;;;;;17.20;10.10;;;;;;;5.49;56.49;101337.98;108225;1281;21989;-60
2023/11/23 02:11:14;;;;;;;18.80;9.90;;;;;;;5.49;56.23;101338.85;107374;1284;1002985;-60
2023/11/23 02:13:40;;;;;;;24.30;12.20;;;;;;;5.50;56.24;101339.41;108188;1284;22008;-60
2023/11/23 02:16:06;;;;;;;17.70;9.80;;;;;;;5.50;56.35;101340.45;107426;1285;1002287;-60
2023/11/23 02:18:38;;;;;;;18.10;9.90;;;;;;;5.49;56.29;101338.48;108221;1285;22026;-61
2023/11/23 02:21:04;;;;;;;16.40;9.30;;;;;;;5.47;56.20;101342.80;108184;1274;21988;-61
2023/11/23 02:23:31;;;;;;;16.10;8.90;;;;;;;5.45;55.94;101340.15;108211;1280;21991;-60
2023/11/23 02:25:57;;;;;;;15.60;8.60;;;;;;;5.44;56.15;101338.92;108183;1283;22043;-60
2023/11/23 02:28:23;;;;;;;15.60;8.70;;;;;;;5.45;56.13;101336.86;108232;1278;22077;-61
2023/11/23 02:30:49;;;;;;;15.10;7.50;;;;;;;5.46;56.11;101334.26;108110;1285;21994;-61
2023/11/23 02:33:15;;;;;;;16.00;9.40;;;;;;;5.46;56.12;101341.55;107455;1281;1002432;-60
2023/11/23 02:35:40;;;;;;;16.00;9.10;;;;;;;5.45;56.10;101343.46;108032;1285;21985;-61
2023/11/23 02:38:06;;;;;;;16.40;8.50;;;;;;;5.48;55.94;101347.86;108010;1285;21996;-61
2023/11/23 02:40:32;;;;;;;15.90;8.50;;;;;;;5.51;56.23;101348.48;108070;1281;21986;-60
2023/11/23 02:42:58;;;;;;;13.90;7.20;;;;;;;5.51;56.14;101350.73;108079;1273;23053;-60
2023/11/23 02:45:24;;;;;;;15.80;7.70;;;;;;;5.48;55.74;101357.98;108056;1283;22103;-61
2023/11/23 02:47:49;;;;;;;13.50;8.40;;;;;;;5.47;55.68;101356.91;108047;1280;22109;-60
2023/11/23 02:50:15;;;;;;;13.30;8.00;;;;;;;5.36;55.59;101357.66;108073;1285;22006;-61
2023/11/23 02:52:41;;;;;;;12.60;7.40;;;;;;;5.27;55.61;101357.98;108181;1281;21988;-61
2023/11/23 02:55:11;;;;;;;14.50;7.70;;;;;;;5.23;55.22;101363.44;108059;1284;21990;-60
2023/11/23 02:57:36;;;;;;;17.60;7.70;;;;;;;5.19;54.99;101370.47;107290;1274;1002293;-60
2023/11/23 03:00:03;;;;;;;12.90;7.30;;;;;;;5.19;55.13;101369.61;108246;1285;21986;-60
2023/11/23 03:02:29;;;;;;;14.10;7.70;;;;;;;5.20;55.19;101367.54;108246;1283;21993;-61
2023/11/23 03:04:54;;;;;;;11.70;7.40;;;;;;;5.15;54.57;101369.32;108094;1275;21995;-61
2023/11/23 03:07:20;;;;;;;14.50;8.50;;;;;;;5.10;54.64;101368.34;108246;1285;21993;-60
2023/11/23 03:09:45;;;;;;;14.00;8.10;;;;;;;5.09;54.86;101368.48;108063;1280;22002;-61
2023/11/23 03:12:11;;;;;;;13.60;7.90;;;;;;;5.12;55.22;101368.54;108198;1273;22023;-61
2023/11/23 03:14:37;;;;;;;15.50;7.60;;;;;;;5.12;55.09;101366.30;107502;1284;1002955;-61
2023/11/23 03:17:03;;;;;;;14.10;8.40;;;;;;;5.09;54.52;101370.75;108288;1285;21998;-60
2023/11/23 03:19:29;;;;;;;12.70;7.20;;;;;;;5.03;54.25;101374.23;108249;1283;21995;-60
2023/11/23 03:21:55;;;;;;;12.20;7.30;;;;;;;4.93;54.04;101374.33;108268;1274;22024;-60
2023/11/23 03:24:20;;;;;;;13.00;7.20;;;;;;;4.88;54.14;101378.88;108173;1277;22979;-60
2023/11/23 03:26:46;;;;;;;14.40;9.20;;;;;;;4.84;53.95;101381.58;108176;1284;21987;-60
2023/11/23 03:29:12;;;;;;;16.50;9.00;;;;;;;4.80;54.03;101376.42;108152;1285;21984;-61
2023/11/23 03:31:38;;;;;;;16.90;8.50;;;;;;;4.79;54.28;101374.48;108065;1284;21987;-61
2023/11/23 03:34:03;;;;;;;13.30;7.00;;;;;;;4.82;54.68;101375.80;108076;1273;22064;-60
2023/11/23 03:36:30;;;;;;;13.10;6.80;;;;;;;4.89;54.99;101373.00;108103;1278;21988;-59
2023/11/23 03:38:56;;;;;;;16.00;8.10;;;;;;;4.96;55.14;101365.01;108111;1281;22057;-62
2023/11/23 03:41:21;;;;;;;14.90;8.00;;;;;;;5.01;55.08;101363.39;108098;1281;21998;-62
2023/11/23 03:43:47;;;;;;;15.30;7.60;;;;;;;5.04;54.80;101361.75;108094;1281;22059;-63
2023/11/23 03:46:13;;;;;;;16.50;8.20;;;;;;;5.04;54.52;101362.96;108118;1280;21989;-61
2023/11/23 03:48:38;;;;;;;17.10;9.20;;;;;;;5.04;54.84;101357.41;108052;1283;21989;-62
2023/11/23 03:51:06;;;;;;;12.50;7.60;;;;;;;5.05;54.71;101350.11;108122;1284;21981;-61
2023/11/23 03:53:32;;;;;;;16.70;7.70;;;;;;;5.07;54.73;101351.39;108139;1283;22042;-63
2023/11/23 03:55:57;;;;;;;17.70;8.00;;;;;;;5.11;54.79;101352.69;107339;1285;1002603;-61
2023/11/23 03:58:23;;;;;;;15.10;7.40;;;;;;;5.12;54.62;101354.29;107499;1284;1002122;-63
2023/11/23 04:00:49;;;;;;;14.80;8.00;;;;;;;5.16;54.71;101347.94;108295;1280;21981;-61
2023/11/23 04:03:15;;;;;;;13.60;7.40;;;;;;;5.16;54.54;101346.73;108250;1279;23060;-61
2023/11/23 04:05:41;;;;;;;13.40;7.50;;;;;;;5.15;54.46;101350.35;108057;1285;22038;-62
2023/11/23 04:08:07;;;;;;;17.60;7.40;;;;;;;5.14;54.58;101350.33;108081;1283;22030;-61
2023/11/23 04:10:33;;;;;;;15.40;7.80;;;;;;;5.12;54.31;101353.41;108103;1274;21987;-61
2023/11/23 04:12:59;;;;;;;14.90;7.50;;;;;;;5.09;54.07;101355.23;108133;1281;21984;-61
2023/11/23 04:15:25;;;;;;;13.70;7.50;;;;;;;5.06;54.27;101347.55;108206;1274;21990;-63
2023/11/23 04:17:51;;;;;;;14.60;7.40;;;;;;;5.06;54.18;101342.66;108257;1285;22031;-62
2023/11/23 04:20:16;;;;;;;15.40;7.40;;;;;;;5.09;54.52;101338.38;108211;1285;22458;-61
2023/11/23 04:22:42;;;;;;;17.00;7.90;;;;;;;5.08;54.16;101340.10;108206;1283;22054;-61
2023/11/23 04:25:08;;;;;;;15.00;8.10;;;;;;;5.07;54.25;101345.65;108299;1285;22051;-61
2023/11/23 04:27:34;;;;;;;16.00;7.30;;;;;;;5.03;54.15;101345.21;108160;1284;21984;-61
2023/11/23 04:29:59;;;;;;;17.70;8.10;;;;;;;5.03;54.42;101345.55;108150;1284;21991;-62
2023/11/23 04:32:25;;;;;;;19.60;9.20;;;;;;;5.07;54.62;101351.55;106745;1285;2002474;-62
2023/11/23 04:34:50;;;;;;;18.20;7.90;;;;;;;5.08;54.27;101357.50;107383;1285;1002266;-61
2023/11/23 04:37:17;;;;;;;16.80;7.70;;;;;;;5.06;54.06;101356.23;106566;1283;2006383;-61
2023/11/23 04:39:43;;;;;;;14.40;7.90;;;;;;;5.07;54.30;101354.16;108156;1278;21987;-61
2023/11/23 04:42:08;;;;;;;18.80;7.30;;;;;;;5.10;54.33;101356.31;107360;1284;1003117;-61
2023/11/23 04:44:34;;;;;;;13.50;7.20;;;;;;;5.10;54.48;101358.23;108100;1281;21994;-62
2023/11/23 04:46:59;;;;;;;15.20;6.90;;;;;;;5.13;54.89;101360.59;108139;1274;22106;-61
2023/11/23 04:49:25;;;;;;;14.00;7.50;;;;;;;5.20;54.81;101365.45;108300;1274;24120;-61
2023/11/23 04:51:51;;;;;;;19.80;8.10;;;;;;;5.20;54.59;101372.27;108061;1284;22060;-62
2023/11/23 04:54:17;;;;;;;20.00;8.00;;;;;;;5.23;54.89;101373.36;106917;1274;2002455;-62
2023/11/23 04:56:43;;;;;;;18.60;8.30;;;;;;;5.24;54.69;101366.96;108083;1285;22038;-61
2023/11/23 04:59:09;;;;;;;20.90;8.10;;;;;;;5.23;54.18;101361.37;108201;1283;22048;-63
2023/11/23 05:01:34;;;;;;;32.80;8.70;;;;;;;5.24;54.01;101366.79;108256;1284;21983;-61
2023/11/23 05:04:02;;;;;;;18.80;8.60;;;;;;;5.20;53.75;101376.77;108019;1281;22030;-61
2023/11/23 05:06:28;;;;;;;19.40;9.40;;;;;;;5.15;53.21;101375.08;108013;1283;21984;-61
2023/11/23 05:08:53;;;;;;;27.70;9.60;;;;;;;5.04;53.05;101375.67;108039;1280;22025;-61
2023/11/23 05:11:19;;;;;;;18.20;8.50;;;;;;;4.99;53.95;101373.61;108003;1283;21996;-61
2023/11/23 05:13:45;;;;;;;19.80;8.90;;;;;;;5.01;54.03;101377.66;108083;1284;21999;-61
2023/11/23 05:16:10;;;;;;;15.60;8.00;;;;;;;5.01;54.12;101379.07;108234;1274;22096;-62
2023/11/23 05:18:36;;;;;;;16.70;8.40;;;;;;;5.03;54.15;101382.08;108268;1280;21996;-62
2023/11/23 05:21:03;;;;;;;19.10;9.00;;;;;;;5.02;53.99;101383.94;108150;1283;22022;-61
2023/11/23 05:23:29;;;;;;;17.40;7.80;;;;;;;5.00;53.94;101383.04;108236;1271;21987;-61
2023/11/23 05:25:54;;;;;;;15.80;8.00;;;;;;;4.99;53.67;101378.99;108181;1280;22005;-61
2023/11/23 05:28:21;;;;;;;17.30;7.60;;;;;;;4.99;53.89;101375.70;108072;1277;22099;-61
2023/11/23 05:30:47;;;;;;;18.10;8.40;;;;;;;5.04;54.13;101373.23;108106;1285;22214;-61
2023/11/23 05:33:12;;;;;;;20.30;7.90;;;;;;;5.07;54.05;101375.23;107257;1283;1003089;-61
2023/11/23 05:35:38;;;;;;;16.00;8.80;;;;;;;5.09;53.98;101369.52;107305;1274;1003400;-61
2023/11/23 05:38:04;;;;;;;17.00;9.30;;;;;;;5.10;54.27;101373.36;108092;1280;22030;-61
2023/11/23 05:40:29;;;;;;;17.10;7.60;;;;;;;5.14;53.97;101364.96;108109;1285;21989;-61
2023/11/23 05:42:55;;;;;;;16.00;8.00;;;;;;;5.18;54.11;101359.67;108257;1284;22042;-62
2023/11/23 05:45:21;;;;;;;17.70;9.30;;;;;;;5.22;54.20;101347.59;107433;1280;1002896;-61
2023/11/23 05:47:46;;;;;;;15.70;8.90;;;;;;;5.24;54.10;101346.42;107300;1277;1002861;-61
2023/11/23 05:50:12;;;;;;;18.00;8.30;;;;;;;5.23;53.65;101347.10;108259;1284;22050;-61
2023/11/23 05:52:39;;;;;;;14.20;7.70;;;;;;;5.20;53.84;101351.55;108144;1285;22024;-62
2023/11/23 05:55:05;;;;;;;15.90;7.80;;;;;;;5.19;53.58;101352.59;108095;1274;21990;-62
2023/11/23 05:57:32;;;;;;;16.80;8.30;;;;;;;5.20;53.49;101353.11;107404;1285;1003112;-63
2023/11/23 05:59:58;;;;;;;19.40;8.30;;;;;;;5.20;53.86;101355.72;108407;1284;21980;-62
2023/11/23 06:02:24;;;;;;;16.30;8.00;;;;;;;5.26;53.92;101349.95;108292;1284;23725;-61
2023/11/23 06:04:52;;;;;;;18.30;9.00;;;;;;;5.30;53.95;101342.55;107332;1280;1003040;-62
2023/11/23 06:07:18;;;;;;;15.00;8.30;;;;;;;5.33;53.96;101348.55;107522;1283;1002603;-61
2023/11/23 06:09:43;;;;;;;16.90;8.60;;;;;;;5.35;53.71;101349.48;107347;1284;1002585;-61
2023/11/23 06:12:09;;;;;;;18.70;9.50;;;;;;;5.38;53.96;101342.05;108030;1280;21988;-61
2023/11/23 06:14:38;;;;;;;16.90;9.70;;;;;;;5.54;56.07;101331.13;108009;1274;21989;-62
2023/11/23 06:17:10;;;;;;;16.90;9.20;;;;;;;5.69;54.82;101329.73;108000;1285;22032;-61
2023/11/23 06:19:39;;;;;;;18.30;8.70;;;;;;;5.70;53.66;101328.70;108228;1284;21989;-62
2023/11/23 06:22:05;;;;;;;18.00;8.40;;;;;;;5.65;53.35;101332.95;108256;1284;21965;-61
2023/11/23 06:24:30;;;;;;;13.30;7.10;;;;;;;5.60;53.12;101334.74;108286;1284;22005;-62
2023/11/23 06:26:56;;;;;;;19.00;7.80;;;;;;;5.54;53.08;101330.08;108221;1284;21983;-61
2023/11/23 06:29:22;;;;;;;15.10;7.90;;;;;;;5.47;52.79;101330.63;108203;1283;22453;-62
2023/11/23 06:31:49;;;;;;;25.80;11.30;;;;;;;5.33;51.88;101330.46;108194;1284;21986;-61
2023/11/23 06:34:16;;;;;;;33.00;13.60;;;;;;;5.19;52.23;101328.55;107521;1274;1002400;-61
2023/11/23 06:36:42;;;;;;;59.00;21.10;;;;;;;5.11;52.63;101331.99;108050;1284;21989;-61
2023/11/23 06:39:09;;;;;;;40.00;16.60;;;;;;;5.06;52.87;101332.91;107533;1273;1002966;-61
2023/11/23 06:41:35;;;;;;;29.90;13.10;;;;;;;5.03;52.71;101331.98;108253;1281;22033;-61
2023/11/23 06:44:00;;;;;;;17.00;8.90;;;;;;;4.97;52.47;101330.42;108272;1283;21995;-60
2023/11/23 06:46:26;;;;;;;18.90;10.50;;;;;;;4.94;52.67;101326.15;108216;1278;22005;-60
2023/11/23 06:48:52;;;;;;;15.70;8.20;;;;;;;4.94;52.76;101315.55;108192;1284;22020;-62
2023/11/23 06:51:17;;;;;;;21.20;8.10;;;;;;;4.94;52.44;101306.87;108194;1284;22018;-61
2023/11/23 06:53:45;;;;;;;17.00;9.20;;;;;;;4.86;51.97;101300.23;108233;1274;21994;-60
2023/11/23 06:56:12;;;;;;;17.70;9.50;;;;;;;4.75;51.97;101294.04;108331;1273;21973;-60
2023/11/23 06:58:40;;;;;;;17.20;9.20;;;;;;;4.70;52.11;101287.11;108114;1285;21988;-60
2023/11/23 07:01:09;;;;;;;19.80;10.50;;;;;;;4.67;52.33;101285.30;108095;1274;22006;-60
2023/11/23 07:03:38;;;;;;;14.80;8.60;;;;;;;4.69;52.73;101284.67;108241;1284;21988;-60
2023/11/23 07:06:04;;;;;;;16.00;10.00;;;;;;;4.75;52.51;101290.39;108147;1285;22027;-60
2023/11/23 07:08:30;;;;;;;19.30;9.80;;;;;;;4.76;52.47;101287.95;107498;1277;1002815;-61
2023/11/23 07:10:57;;;;;;;21.90;11.00;;;;;;;4.77;52.54;101288.16;108223;1283;21984;-60
2023/11/23 07:13:23;;;;;;;16.60;9.70;;;;;;;4.79;52.19;101282.66;108283;1273;21985;-61
2023/11/23 07:15:48;;;;;;;19.20;10.20;;;;;;;4.80;52.31;101271.90;108296;1285;22119;-60
2023/11/23 07:18:14;;;;;;;17.10;8.10;;;;;;;4.82;52.51;101263.95;108254;1284;22157;-60
2023/11/23 07:20:41;;;;;;;18.70;9.40;;;;;;;4.87;52.66;101262.70;108188;1285;22559;-60
2023/11/23 07:23:07;;;;;;;18.00;9.60;;;;;;;4.95;52.63;101259.58;108237;1285;21987;-61
2023/11/23 07:25:34;;;;;;;22.10;11.20;;;;;;;4.99;52.58;101257.77;108220;1285;22010;-61
2023/11/23 07:28:00;;;;;;;14.80;8.30;;;;;;;5.01;52.42;101261.29;108208;1278;22033;-60
2023/11/23 07:30:25;;;;;;;16.60;9.60;;;;;;;4.98;52.18;101265.02;108189;1277;21988;-61
2023/11/23 07:32:51;;;;;;;21.10;10.30;;;;;;;4.94;52.46;101264.58;108232;1285;21995;-61
2023/11/23 07:35:17;;;;;;;15.70;9.90;;;;;;;5.00;52.94;101261.77;108207;1277;22452;-61
2023/11/23 07:37:43;;;;;;;18.90;9.90;;;;;;;5.08;52.94;101262.86;108191;1274;22000;-61
2023/11/23 07:40:12;;;;;;;18.80;10.30;;;;;;;5.17;53.06;101261.15;108238;1281;22032;-61
2023/11/23 07:42:42;;;;;;;17.80;9.60;;;;;;;5.24;52.82;101263.75;108292;1285;22042;-61
2023/11/23 07:45:08;;;;;;;17.60;9.70;;;;;;;5.17;51.67;101263.77;108197;1277;23637;-61
2023/11/23 07:47:34;;;;;;;15.30;9.10;;;;;;;5.13;52.31;101258.81;108277;1284;21989;-62
2023/11/23 07:50:00;;;;;;;22.70;11.10;;;;;;;5.16;52.68;101263.39;108234;1283;22013;-61
2023/11/23 07:52:26;;;;;;;17.20;9.40;;;;;;;5.20;52.21;101270.63;108172;1271;21997;-61
2023/11/23 07:54:52;;;;;;;17.10;10.00;;;;;;;5.16;52.00;101273.13;108094;1281;22029;-61
2023/11/23 07:57:22;;;;;;;15.40;8.50;;;;;;;5.13;52.21;101256.17;108259;1284;22064;-61
2023/11/23 07:59:48;;;;;;;16.20;9.30;;;;;;;5.11;51.80;101248.11;108135;1284;22004;-61
2023/11/23 08:02:14;;;;;;;18.60;9.20;;;;;;;5.11;52.00;101248.83;108060;1285;22021;-61
2023/11/23 08:04:40;;;;;;;17.80;8.30;;;;;;;5.16;52.21;101244.77;108103;1285;21986;-61
2023/11/23 08:07:05;;;;;;;17.20;9.00;;;;;;;5.21;52.17;101230.11;107283;1280;1002446;-61
2023/11/23 08:09:31;;;;;;;14.50;7.70;;;;;;;5.26;52.12;101222.90;108021;1285;21993;-61
2023/11/23 08:11:57;;;;;;;15.20;8.80;;;;;;;5.28;51.84;101216.02;108122;1277;21983;-62
2023/11/23 08:14:23;;;;;;;14.70;9.50;;;;;;;5.31;51.95;101216.06;108016;1284;21999;-61
2023/11/23 08:16:48;;;;;;;15.30;8.80;;;;;;;5.26;51.63;101211.08;108251;1284;22031;-61
2023/11/23 08:19:14;;;;;;;15.70;8.80;;;;;;;5.18;51.60;101208.30;108204;1284;22001;-61
2023/11/23 08:21:40;;;;;;;16.40;8.00;;;;;;;5.21;52.11;101203.83;108199;1279;21986;-61
2023/11/23 08:24:08;;;;;;;15.10;7.70;;;;;;;5.29;52.19;101198.63;108259;1284;22264;-61
2023/11/23 08:26:34;;;;;;;12.90;7.60;;;;;;;5.31;51.74;101199.18;108291;1281;21987;-61
2023/11/23 08:28:59;;;;;;;16.50;8.00;;;;;;;5.27;51.39;101201.02;108800;1274;22005;-61
2023/11/23 08:31:28;;;;;;;13.50;6.90;;;;;;;5.29;51.73;101212.37;108096;1285;21992;-61
2023/11/23 08:33:55;;;;;;;11.50;6.60;;;;;;;5.32;51.88;101219.05;108207;1285;22458;-61
2023/11/23 08:36:21;;;;;;;12.60;6.90;;;;;;;5.34;51.86;101220.84;108146;1285;21996;-61
2023/11/23 08:38:47;;;;;;;12.50;6.70;;;;;;;5.34;51.63;101208.46;108025;1285;22010;-60
2023/11/23 08:41:13;;;;;;;11.70;6.60;;;;;;;5.37;51.68;101206.10;107303;1274;1002366;-61
2023/11/23 08:43:39;;;;;;;9.90;6.10;;;;;;;5.36;51.87;101204.35;107396;1280;1002454;-61
2023/11/23 08:46:07;;;;;;;12.40;7.40;;;;;;;5.33;51.44;101202.02;108119;1285;22024;-61
2023/11/23 08:48:32;;;;;;;12.10;7.20;;;;;;;5.28;51.40;101202.08;108193;1274;22011;-61
2023/11/23 08:50:58;;;;;;;12.20;6.40;;;;;;;5.24;51.23;101194.52;108058;1285;22024;-61
2023/11/23 08:53:24;;;;;;;11.10;6.30;;;;;;;5.23;51.57;101180.04;108017;1279;22049;-61
2023/11/23 08:55:51;;;;;;;11.20;6.70;;;;;;;5.26;51.53;101167.92;108082;1284;21983;-61
2023/11/23 08:58:18;;;;;;;10.90;6.70;;;;;;;5.29;51.76;101163.11;108025;1284;21983;-61
2023/11/23 09:00:44;;;;;;;19.80;10.50;;;;;;;5.28;51.58;101162.56;108309;1278;21988;-61
2023/11/23 09:03:10;;;;;;;15.50;7.90;;;;;;;5.31;51.87;101159.86;108272;1285;21983;-61
2023/11/23 09:05:36;;;;;;;13.10;7.20;;;;;;;5.33;51.69;101144.58;107324;1276;1002304;-61
2023/11/23 09:08:06;;;;;;;10.50;6.50;;;;;;;5.30;51.50;101128.86;107302;1280;1002566;-61
2023/11/23 09:10:33;;;;;;;13.60;7.80;;;;;;;5.30;51.53;101126.42;108183;1285;21986;-61
2023/11/23 09:13:00;;;;;;;14.40;8.30;;;;;;;5.35;51.78;101126.33;108184;1285;22009;-61
2023/11/23 09:15:25;;;;;;;85.70;31.30;;;;;;;5.42;51.73;101133.96;108160;1284;22448;-61
2023/11/23 09:17:51;;;;;;;42.50;18.70;;;;;;;5.50;51.95;101131.02;108152;1273;21974;-61
2023/11/23 09:20:17;;;;;;;15.70;9.20;;;;;;;5.55;51.60;101118.39;108046;1284;21991;-61
2023/11/23 09:22:44;;;;;;;17.20;8.10;;;;;;;5.58;51.68;101098.79;108028;1284;22068;-61
2023/11/23 09:25:09;;;;;;;17.50;9.40;;;;;;;5.64;51.76;101082.19;108231;1281;21996;-61
2023/11/23 09:27:36;;;;;;;192.60;69.60;;;;;;;5.68;51.72;101070.77;108184;1284;21990;-61
2023/11/23 09:30:06;;;;;;;178.40;66.90;;;;;;;5.71;51.46;101064.05;108172;1283;21992;-61
2023/11/23 09:32:37;;;;;;;250.20;100.60;;;;;;;5.72;51.44;101062.66;108356;1284;22959;-61
2023/11/23 09:35:04;;;;;;;;;;;;;;;5.66;51.15;101058.39;108302;1284;21970;-61
2023/11/23 09:37:29;;;;;;;120.20;51.20;;;;;;;5.63;51.34;101049.95;108102;1285;21987;-61
2023/11/23 09:39:55;;;;;;;93.70;45.20;;;;;;;5.65;51.61;101037.64;108176;1285;21998;-61
2023/11/23 09:42:21;;;;;;;70.90;38.20;;;;;;;5.71;52.04;101024.86;108019;1285;21997;-61
2023/11/23 09:44:46;;;;;;;41.90;25.00;;;;;;;5.75;51.64;101018.83;108021;1274;22116;-62
2023/11/23 09:47:15;;;;;;;34.90;21.70;;;;;;;5.71;51.38;101005.17;108118;1285;22027;-61
2023/11/23 09:49:44;;;;;;;21.80;15.30;;;;;;;5.71;51.55;100993.69;108276;1285;22493;-61
2023/11/23 09:52:09;;;;;;;19.30;13.80;;;;;;;5.73;51.66;100988.85;108202;1285;21997;-60
2023/11/23 09:54:35;;;;;;;16.90;10.30;;;;;;;5.77;51.68;100992.21;108096;1280;21989;-61
2023/11/23 09:57:01;;;;;;;17.40;10.30;;;;;;;5.75;51.67;100988.70;108216;1284;21993;-61
2023/11/23 09:59:26;;;;;;;17.70;9.70;;;;;;;5.74;51.44;100984.84;108252;1284;21983;-61
2023/11/23 10:01:58;;;;;;;16.50;8.70;;;;;;;5.71;51.58;100978.89;107454;1274;1002421;-60
2023/11/23 10:04:24;;;;;;;16.30;9.80;;;;;;;5.69;51.59;100977.83;108041;1284;21999;-60
2023/11/23 10:06:50;;;;;;;12.90;8.50;;;;;;;5.68;51.65;100970.31;108210;1277;22004;-60
2023/11/23 10:09:16;;;;;;;16.50;9.30;;;;;;;5.69;51.92;100960.75;108289;1284;21982;-60
2023/11/23 10:11:42;;;;;;;15.00;8.50;;;;;;;5.68;51.88;100963.16;108263;1284;22055;-60
2023/11/23 10:14:10;;;;;;;15.50;9.30;;;;;;;5.65;51.90;100963.63;108073;1280;22518;-60
2023/11/23 10:16:36;;;;;;;15.90;9.50;;;;;;;5.64;52.20;100962.74;107429;1285;1002621;-60
2023/11/23 10:19:03;;;;;;;16.40;9.10;;;;;;;5.65;52.00;100963.80;108342;1284;21990;-59
2023/11/23 10:21:29;;;;;;;15.80;9.40;;;;;;;5.69;52.36;100963.20;108147;1274;21986;-59
2023/11/23 10:24:03;;;;;;;18.60;9.80;;;;;;;5.73;52.56;100959.25;107274;1285;1002103;-60
2023/11/23 10:26:29;;;;;;;17.90;9.40;;;;;;;5.73;52.56;100954.02;108019;1284;22028;-60
2023/11/23 10:28:54;;;;;;;27.20;14.50;;;;;;;5.72;52.77;100952.61;108012;1278;21984;-59
2023/11/23 10:31:20;;;;;;;28.60;15.20;;;;;;;5.78;52.61;100949.75;108110;1277;23095;-60
2023/11/23 10:33:46;;;;;;;17.90;10.60;;;;;;;5.83;52.80;100946.52;107246;1285;1002456;-60
2023/11/23 10:36:12;;;;;;;16.50;9.50;;;;;;;5.84;53.18;100947.56;108061;1285;21997;-60
2023/11/23 10:38:38;;;;;;;16.20;9.10;;;;;;;5.89;53.08;100945.04;108244;1277;21986;-61
2023/11/23 10:41:08;;;;;;;19.40;10.10;;;;;;;5.94;53.30;100938.86;108141;1285;21989;-60
2023/11/23 10:43:36;;;;;;;21.00;12.00;;;;;;;5.97;53.34;100927.06;108274;1285;21991;-60
2023/11/23 10:46:09;;;;;;;15.80;9.50;;;;;;;5.99;53.43;100914.38;108326;1285;23056;-60
2023/11/23 10:48:38;;;;;;;17.40;10.00;;;;;;;6.02;53.53;100910.23;108279;1285;22027;-60
2023/11/23 10:51:05;;;;;;;14.40;8.60;;;;;;;6.04;53.35;100906.80;107342;1279;1002596;-59
2023/11/23 10:53:31;;;;;;;15.00;8.60;;;;;;;6.07;53.29;100896.39;108153;1277;21982;-60
2023/11/23 10:56:06;;;;;;;16.30;8.60;;;;;;;6.11;53.28;100884.77;107372;1273;1003137;-60
2023/11/23 10:58:36;;;;;;;14.30;8.90;;;;;;;6.13;53.14;100869.82;107332;1285;1003422;-60
2023/11/23 11:01:03;;;;;;;14.60;8.50;;;;;;;6.16;53.17;100861.67;108083;1285;21983;-60
2023/11/23 11:03:29;;;;;;;17.50;9.90;;;;;;;6.19;53.55;100857.20;108060;1285;23726;-60
2023/11/23 11:05:55;;;;;;;26.70;14.60;;;;;;;6.24;53.62;100852.90;108089;1284;22040;-60
2023/11/23 11:08:26;;;;;;;289.30;82.40;;;;;;;6.25;53.32;100841.06;108190;1285;21984;-60